sensor_id;sensor_type;location;lat;lon;timestamp;pressure;altitude;pressure_sealevel;temperature
62930;BMP280;49036;42.782;23.108;2023-10-13T00:00:34;94497.72;;;7.85
62930;BMP280;49036;42.782;23.108;2023-10-13T00:03:03;94486.88;;;7.80
62930;BMP280;49036;42.782;23.108;2023-10-13T00:05:31;94488.75;;;7.70
62930;BMP280;49036;42.782;23.108;2023-10-13T00:07:57;94491.00;;;7.64
62930;BMP280;49036;42.782;23.108;2023-10-13T00:10:27;94488.22;;;7.56
62930;BMP280;49036;42.782;23.108;2023-10-13T00:12:53;94488.59;;;7.52
62930;BMP280;49036;42.782;23.108;2023-10-13T00:15:18;94493.41;;;7.52
62930;BMP280;49036;42.782;23.108;2023-10-13T00:17:53;94486.03;;;7.39
62930;BMP280;49036;42.782;23.108;2023-10-13T00:20:21;94483.63;;;7.36
62930;BMP280;49036;42.782;23.108;2023-10-13T00:23:01;94475.00;;;7.39
62930;BMP280;49036;42.782;23.108;2023-10-13T00:25:27;94482.72;;;7.41
62930;BMP280;49036;42.782;23.108;2023-10-13T00:27:52;94481.81;;;7.30
62930;BMP280;49036;42.782;23.108;2023-10-13T00:30:18;94473.34;;;7.21
62930;BMP280;49036;42.782;23.108;2023-10-13T00:32:57;94469.13;;;7.12
62930;BMP280;49036;42.782;23.108;2023-10-13T00:35:23;94476.84;;;6.98
62930;BMP280;49036;42.782;23.108;2023-10-13T00:37:55;94479.00;;;6.85
62930;BMP280;49036;42.782;23.108;2023-10-13T00:40:23;94479.00;;;6.77
62930;BMP280;49036;42.782;23.108;2023-10-13T00:42:58;94482.31;;;6.68
62930;BMP280;49036;42.782;23.108;2023-10-13T00:45:44;94486.31;;;6.59
62930;BMP280;49036;42.782;23.108;2023-10-13T00:48:10;94487.59;;;6.51
62930;BMP280;49036;42.782;23.108;2023-10-13T00:50:38;94486.84;;;6.50
62930;BMP280;49036;42.782;23.108;2023-10-13T00:53:04;94483.38;;;6.57
62930;BMP280;49036;42.782;23.108;2023-10-13T00:55:29;94480.06;;;6.59
62930;BMP280;49036;42.782;23.108;2023-10-13T00:57:59;94487.25;;;6.62
62930;BMP280;49036;42.782;23.108;2023-10-13T01:00:29;94480.63;;;6.65
62930;BMP280;49036;42.782;23.108;2023-10-13T01:02:56;94480.84;;;6.67
62930;BMP280;49036;42.782;23.108;2023-10-13T01:05:25;94479.16;;;6.64
62930;BMP280;49036;42.782;23.108;2023-10-13T01:07:51;94484.16;;;6.73
62930;BMP280;49036;42.782;23.108;2023-10-13T01:10:23;94480.84;;;6.82
62930;BMP280;49036;42.782;23.108;2023-10-13T01:12:54;94491.16;;;6.89
62930;BMP280;49036;42.782;23.108;2023-10-13T01:15:19;94481.44;;;6.88
62930;BMP280;49036;42.782;23.108;2023-10-13T01:17:48;94483.06;;;6.91
62930;BMP280;49036;42.782;23.108;2023-10-13T01:20:15;94491.72;;;6.88
62930;BMP280;49036;42.782;23.108;2023-10-13T01:22:51;94488.97;;;6.80
62930;BMP280;49036;42.782;23.108;2023-10-13T01:25:24;94490.19;;;6.71
62930;BMP280;49036;42.782;23.108;2023-10-13T01:27:53;94489.13;;;6.67
62930;BMP280;49036;42.782;23.108;2023-10-13T01:30:19;94485.22;;;6.70
62930;BMP280;49036;42.782;23.108;2023-10-13T01:32:52;94492.63;;;6.67
62930;BMP280;49036;42.782;23.108;2023-10-13T01:35:19;94481.41;;;6.73
62930;BMP280;49036;42.782;23.108;2023-10-13T01:37:51;94481.41;;;6.73
62930;BMP280;49036;42.782;23.108;2023-10-13T01:40:16;94478.81;;;6.83
62930;BMP280;49036;42.782;23.108;2023-10-13T01:42:46;94481.25;;;7.02
62930;BMP280;49036;42.782;23.108;2023-10-13T01:45:11;94484.22;;;7.19
62930;BMP280;49036;42.782;23.108;2023-10-13T01:47:42;94485.66;;;7.27
62930;BMP280;49036;42.782;23.108;2023-10-13T01:50:10;94484.19;;;7.26
62930;BMP280;49036;42.782;23.108;2023-10-13T01:52:44;94490.28;;;7.17
62930;BMP280;49036;42.782;23.108;2023-10-13T01:55:10;94483.81;;;7.07
62930;BMP280;49036;42.782;23.108;2023-10-13T01:57:36;94482.16;;;6.96
62930;BMP280;49036;42.782;23.108;2023-10-13T02:00:02;94489.69;;;6.88
62930;BMP280;49036;42.782;23.108;2023-10-13T02:02:36;94479.00;;;6.77
62930;BMP280;49036;42.782;23.108;2023-10-13T02:05:10;94474.03;;;6.68
62930;BMP280;49036;42.782;23.108;2023-10-13T02:07:35;94468.34;;;6.66
62930;BMP280;49036;42.782;23.108;2023-10-13T02:10:04;94471.09;;;6.66
62930;BMP280;49036;42.782;23.108;2023-10-13T02:12:33;94463.16;;;6.62
62930;BMP280;49036;42.782;23.108;2023-10-13T02:15:10;94470.69;;;6.54
62930;BMP280;49036;42.782;23.108;2023-10-13T02:17:45;94471.03;;;6.58
62930;BMP280;49036;42.782;23.108;2023-10-13T02:20:18;94470.84;;;6.49
62930;BMP280;49036;42.782;23.108;2023-10-13T02:22:55;94475.22;;;6.29
62930;BMP280;49036;42.782;23.108;2023-10-13T02:25:21;94484.88;;;6.15
62930;BMP280;49036;42.782;23.108;2023-10-13T02:28:08;94489.28;;;6.10
62930;BMP280;49036;42.782;23.108;2023-10-13T02:30:43;94491.03;;;6.00
62930;BMP280;49036;42.782;23.108;2023-10-13T02:33:14;94495.25;;;5.93
62930;BMP280;49036;42.782;23.108;2023-10-13T02:35:40;94497.06;;;5.91
62930;BMP280;49036;42.782;23.108;2023-10-13T02:38:16;94491.59;;;5.98
62930;BMP280;49036;42.782;23.108;2023-10-13T02:40:51;94483.59;;;6.08
62930;BMP280;49036;42.782;23.108;2023-10-13T02:43:17;94496.81;;;6.09
62930;BMP280;49036;42.782;23.108;2023-10-13T02:45:52;94487.81;;;6.09
62930;BMP280;49036;42.782;23.108;2023-10-13T02:48:24;94484.34;;;6.16
62930;BMP280;49036;42.782;23.108;2023-10-13T02:50:56;94485.69;;;6.30
62930;BMP280;49036;42.782;23.108;2023-10-13T02:53:21;94492.50;;;6.37
62930;BMP280;49036;42.782;23.108;2023-10-13T02:55:55;94498.06;;;6.45
62930;BMP280;49036;42.782;23.108;2023-10-13T02:58:32;94491.25;;;6.46
62930;BMP280;49036;42.782;23.108;2023-10-13T03:01:07;94493.41;;;6.39
62930;BMP280;49036;42.782;23.108;2023-10-13T03:03:48;94498.38;;;6.33
62930;BMP280;49036;42.782;23.108;2023-10-13T03:06:20;94495.63;;;6.33
62930;BMP280;49036;42.782;23.108;2023-10-13T03:09:10;94497.81;;;6.27
62930;BMP280;49036;42.782;23.108;2023-10-13T03:11:48;94492.47;;;6.22
62930;BMP280;49036;42.782;23.108;2023-10-13T03:14:23;94490.06;;;6.26
62930;BMP280;49036;42.782;23.108;2023-10-13T03:16:51;94495.81;;;6.35
62930;BMP280;49036;42.782;23.108;2023-10-13T03:19:17;94482.28;;;6.60
62930;BMP280;49036;42.782;23.108;2023-10-13T03:21:45;94480.69;;;7.03
62930;BMP280;49036;42.782;23.108;2023-10-13T03:24:21;94474.22;;;7.46
62930;BMP280;49036;42.782;23.108;2023-10-13T03:26:48;94477.19;;;7.41
62930;BMP280;49036;42.782;23.108;2023-10-13T03:29:17;94477.56;;;7.22
62930;BMP280;49036;42.782;23.108;2023-10-13T03:31:47;94473.53;;;7.00
62930;BMP280;49036;42.782;23.108;2023-10-13T03:34:28;94477.72;;;6.78
62930;BMP280;49036;42.782;23.108;2023-10-13T03:36:54;94469.44;;;6.78
62930;BMP280;49036;42.782;23.108;2023-10-13T03:39:23;94470.38;;;6.81
62930;BMP280;49036;42.782;23.108;2023-10-13T03:41:57;94470.72;;;6.77
62930;BMP280;49036;42.782;23.108;2023-10-13T03:44:24;94471.28;;;6.76
62930;BMP280;49036;42.782;23.108;2023-10-13T03:46:55;94465.38;;;6.71
62930;BMP280;49036;42.782;23.108;2023-10-13T03:49:21;94472.34;;;6.65
62930;BMP280;49036;42.782;23.108;2023-10-13T03:51:49;94472.72;;;6.61
62930;BMP280;49036;42.782;23.108;2023-10-13T03:54:16;94462.41;;;6.47
62930;BMP280;49036;42.782;23.108;2023-10-13T03:56:43;94473.00;;;6.35
62930;BMP280;49036;42.782;23.108;2023-10-13T03:59:10;94467.69;;;6.29
62930;BMP280;49036;42.782;23.108;2023-10-13T04:01:43;94468.19;;;6.20
62930;BMP280;49036;42.782;23.108;2023-10-13T04:04:29;94465.38;;;6.05
62930;BMP280;49036;42.782;23.108;2023-10-13T04:07:07;94468.97;;;5.92
62930;BMP280;49036;42.782;23.108;2023-10-13T04:09:40;94473.00;;;5.84
62930;BMP280;49036;42.782;23.108;2023-10-13T04:12:07;94478.44;;;5.76
62930;BMP280;49036;42.782;23.108;2023-10-13T04:14:52;94475.25;;;5.64
62930;BMP280;49036;42.782;23.108;2023-10-13T04:17:23;94481.81;;;5.61
62930;BMP280;49036;42.782;23.108;2023-10-13T04:19:53;94481.66;;;5.59
62930;BMP280;49036;42.782;23.108;2023-10-13T04:22:35;94480.31;;;5.53
62930;BMP280;49036;42.782;23.108;2023-10-13T04:25:25;94484.13;;;5.49
62930;BMP280;49036;42.782;23.108;2023-10-13T04:28:12;94492.38;;;5.49
62930;BMP280;49036;42.782;23.108;2023-10-13T04:30:51;94497.47;;;5.38
62930;BMP280;49036;42.782;23.108;2023-10-13T04:33:27;94495.75;;;5.35
62930;BMP280;49036;42.782;23.108;2023-10-13T04:36:16;94502.63;;;5.41
62930;BMP280;49036;42.782;23.108;2023-10-13T04:38:47;94508.53;;;5.45
62930;BMP280;49036;42.782;23.108;2023-10-13T04:44:00;94500.53;;;5.63
62930;BMP280;49036;42.782;23.108;2023-10-13T04:46:48;94512.38;;;5.71
62930;BMP280;49036;42.782;23.108;2023-10-13T04:49:14;94514.00;;;5.66
62930;BMP280;49036;42.782;23.108;2023-10-13T04:52:00;94513.22;;;5.58
62930;BMP280;49036;42.782;23.108;2023-10-13T04:54:40;94508.03;;;5.55
62930;BMP280;49036;42.782;23.108;2023-10-13T04:57:23;94516.13;;;5.60
62930;BMP280;49036;42.782;23.108;2023-10-13T05:00:01;94513.13;;;5.71
62930;BMP280;49036;42.782;23.108;2023-10-13T05:02:30;94514.97;;;5.76
62930;BMP280;49036;42.782;23.108;2023-10-13T05:05:02;94519.94;;;5.78
62930;BMP280;49036;42.782;23.108;2023-10-13T05:07:48;94526.38;;;5.80
62930;BMP280;49036;42.782;23.108;2023-10-13T05:10:35;94522.25;;;5.95
62930;BMP280;49036;42.782;23.108;2023-10-13T05:13:19;94529.16;;;6.09
62930;BMP280;49036;42.782;23.108;2023-10-13T05:16:03;94528.13;;;6.35
62930;BMP280;49036;42.782;23.108;2023-10-13T05:18:47;94527.00;;;6.66
62930;BMP280;49036;42.782;23.108;2023-10-13T05:21:31;94521.84;;;6.78
62930;BMP280;49036;42.782;23.108;2023-10-13T05:24:15;94528.53;;;7.06
62930;BMP280;49036;42.782;23.108;2023-10-13T05:26:59;94539.56;;;7.36
62930;BMP280;49036;42.782;23.108;2023-10-13T05:29:45;94533.50;;;7.68
62930;BMP280;49036;42.782;23.108;2023-10-13T05:32:29;94538.03;;;8.11
62930;BMP280;49036;42.782;23.108;2023-10-13T05:35:14;94535.66;;;8.56
62930;BMP280;49036;42.782;23.108;2023-10-13T05:37:58;94528.69;;;9.37
62930;BMP280;49036;42.782;23.108;2023-10-13T05:40:56;94528.47;;;10.12
62930;BMP280;49036;42.782;23.108;2023-10-13T05:43:41;94529.31;;;10.66
62930;BMP280;49036;42.782;23.108;2023-10-13T05:46:25;94535.94;;;11.07
62930;BMP280;49036;42.782;23.108;2023-10-13T05:48:52;94535.19;;;11.53
62930;BMP280;49036;42.782;23.108;2023-10-13T05:51:27;94530.28;;;12.19
62930;BMP280;49036;42.782;23.108;2023-10-13T05:54:05;94539.28;;;12.68
62930;BMP280;49036;42.782;23.108;2023-10-13T05:59:25;94540.53;;;12.95
62930;BMP280;49036;42.782;23.108;2023-10-13T06:02:10;94535.03;;;13.17
62930;BMP280;49036;42.782;23.108;2023-10-13T06:04:55;94539.56;;;13.22
62930;BMP280;49036;42.782;23.108;2023-10-13T06:07:40;94533.38;;;13.54
62930;BMP280;49036;42.782;23.108;2023-10-13T06:10:24;94541.81;;;13.66
62930;BMP280;49036;42.782;23.108;2023-10-13T06:13:08;94554.41;;;13.67
62930;BMP280;49036;42.782;23.108;2023-10-13T06:15:52;94555.47;;;13.83
62930;BMP280;49036;42.782;23.108;2023-10-13T06:18:36;94552.13;;;13.96
62930;BMP280;49036;42.782;23.108;2023-10-13T06:21:20;94557.88;;;13.99
62930;BMP280;49036;42.782;23.108;2023-10-13T06:24:04;94561.91;;;14.07
62930;BMP280;49036;42.782;23.108;2023-10-13T06:26:49;94565.09;;;14.13
62930;BMP280;49036;42.782;23.108;2023-10-13T06:29:33;94560.13;;;14.12
62930;BMP280;49036;42.782;23.108;2023-10-13T06:31:58;94561.19;;;14.07
62930;BMP280;49036;42.782;23.108;2023-10-13T06:34:29;94565.88;;;14.04
62930;BMP280;49036;42.782;23.108;2023-10-13T06:37:12;94574.75;;;14.01
62930;BMP280;49036;42.782;23.108;2023-10-13T06:39:50;94576.47;;;14.06
62930;BMP280;49036;42.782;23.108;2023-10-13T06:42:16;94578.88;;;14.00
62930;BMP280;49036;42.782;23.108;2023-10-13T06:44:45;94578.88;;;14.00
62930;BMP280;49036;42.782;23.108;2023-10-13T06:47:12;94571.63;;;14.06
62930;BMP280;49036;42.782;23.108;2023-10-13T06:49:39;94571.66;;;14.51
62930;BMP280;49036;42.782;23.108;2023-10-13T06:52:05;94562.09;;;14.66
62930;BMP280;49036;42.782;23.108;2023-10-13T06:54:35;94567.47;;;14.73
62930;BMP280;49036;42.782;23.108;2023-10-13T06:57:02;94555.47;;;14.94
62930;BMP280;49036;42.782;23.108;2023-10-13T06:59:32;94560.72;;;15.23
62930;BMP280;49036;42.782;23.108;2023-10-13T07:02:00;94561.19;;;15.54
62930;BMP280;49036;42.782;23.108;2023-10-13T07:04:35;94566.50;;;15.74
62930;BMP280;49036;42.782;23.108;2023-10-13T07:07:05;94564.88;;;15.82
62930;BMP280;49036;42.782;23.108;2023-10-13T07:09:31;94573.13;;;15.92
62930;BMP280;49036;42.782;23.108;2023-10-13T07:12:00;94567.19;;;15.86
62930;BMP280;49036;42.782;23.108;2023-10-13T07:14:27;94568.91;;;15.91
62930;BMP280;49036;42.782;23.108;2023-10-13T07:16:59;94571.63;;;16.03
62930;BMP280;49036;42.782;23.108;2023-10-13T07:19:27;94571.66;;;16.28
62930;BMP280;49036;42.782;23.108;2023-10-13T07:21:56;94570.59;;;16.47
62930;BMP280;49036;42.782;23.108;2023-10-13T07:24:26;94570.09;;;16.50
62930;BMP280;49036;42.782;23.108;2023-10-13T07:26:58;94567.94;;;16.88
62930;BMP280;49036;42.782;23.108;2023-10-13T07:29:33;94567.03;;;17.24
62930;BMP280;49036;42.782;23.108;2023-10-13T07:32:02;94562.56;;;17.47
62930;BMP280;49036;42.782;23.108;2023-10-13T07:34:29;94560.78;;;17.67
62930;BMP280;49036;42.782;23.108;2023-10-13T07:38:57;94560.06;;;18.10
62930;BMP280;49036;42.782;23.108;2023-10-13T07:41:49;94557.31;;;18.25
62930;BMP280;49036;42.782;23.108;2023-10-13T07:44:22;94554.81;;;18.63
62930;BMP280;49036;42.782;23.108;2023-10-13T07:47:39;94558.34;;;19.10
62930;BMP280;49036;42.782;23.108;2023-10-13T07:50:05;94557.13;;;19.47
62930;BMP280;49036;42.782;23.108;2023-10-13T07:52:32;94552.00;;;19.59
62930;BMP280;49036;42.782;23.108;2023-10-13T07:55:06;94558.28;;;19.24
62930;BMP280;49036;42.782;23.108;2023-10-13T07:57:40;94550.78;;;19.98
62930;BMP280;49036;42.782;23.108;2023-10-13T08:00:22;94554.81;;;20.28
62930;BMP280;49036;42.782;23.108;2023-10-13T08:03:03;94553.31;;;20.63
62930;BMP280;49036;42.782;23.108;2023-10-13T08:05:55;94561.16;;;21.04
62930;BMP280;49036;42.782;23.108;2023-10-13T08:08:33;94556.91;;;21.03
62930;BMP280;49036;42.782;23.108;2023-10-13T08:11:09;94559.16;;;21.26
62930;BMP280;49036;42.782;23.108;2023-10-13T08:14:01;94570.53;;;21.50
62930;BMP280;49036;42.782;23.108;2023-10-13T08:16:36;94577.78;;;20.95
62930;BMP280;49036;42.782;23.108;2023-10-13T08:19:12;94581.06;;;19.97
62930;BMP280;49036;42.782;23.108;2023-10-13T08:21:43;94568.78;;;19.91
62930;BMP280;49036;42.782;23.108;2023-10-13T08:24:17;94559.13;;;20.49
62930;BMP280;49036;42.782;23.108;2023-10-13T08:26:50;94550.72;;;21.28
62930;BMP280;49036;42.782;23.108;2023-10-13T08:29:34;94550.56;;;22.31
62930;BMP280;49036;42.782;23.108;2023-10-13T08:32:18;94556.50;;;22.89
62930;BMP280;49036;42.782;23.108;2023-10-13T08:35:02;94559.44;;;23.44
62930;BMP280;49036;42.782;23.108;2023-10-13T08:37:31;94559.28;;;22.87
62930;BMP280;49036;42.782;23.108;2023-10-13T08:40:15;94559.03;;;22.07
62930;BMP280;49036;42.782;23.108;2023-10-13T08:43:01;94558.41;;;22.11
62930;BMP280;49036;42.782;23.108;2023-10-13T08:45:28;94557.25;;;21.96
62930;BMP280;49036;42.782;23.108;2023-10-13T08:47:56;94543.38;;;22.04
62930;BMP280;49036;42.782;23.108;2023-10-13T08:50:44;94546.69;;;22.44
62930;BMP280;49036;42.782;23.108;2023-10-13T08:53:23;94544.38;;;22.13
62930;BMP280;49036;42.782;23.108;2023-10-13T08:57:36;94547.19;;;23.36
62930;BMP280;49036;42.782;23.108;2023-10-13T09:00:02;94546.00;;;24.03
62930;BMP280;49036;42.782;23.108;2023-10-13T09:02:47;94548.88;;;23.75
62930;BMP280;49036;42.782;23.108;2023-10-13T09:05:25;94548.69;;;23.13
62930;BMP280;49036;42.782;23.108;2023-10-13T09:08:09;94540.41;;;23.47
62930;BMP280;49036;42.782;23.108;2023-10-13T09:10:36;94537.03;;;24.44
62930;BMP280;49036;42.782;23.108;2023-10-13T09:13:10;94532.91;;;24.51
62930;BMP280;49036;42.782;23.108;2023-10-13T09:15:44;94533.53;;;24.16
62930;BMP280;49036;42.782;23.108;2023-10-13T09:18:27;94522.19;;;24.48
62930;BMP280;49036;42.782;23.108;2023-10-13T09:21:11;94527.25;;;24.53
62930;BMP280;49036;42.782;23.108;2023-10-13T09:24:15;94537.91;;;23.91
62930;BMP280;49036;42.782;23.108;2023-10-13T09:26:43;94532.06;;;23.83
62930;BMP280;49036;42.782;23.108;2023-10-13T09:30:50;94528.38;;;23.48
62930;BMP280;49036;42.782;23.108;2023-10-13T09:33:22;94525.75;;;23.56
62930;BMP280;49036;42.782;23.108;2023-10-13T09:36:15;94521.16;;;23.15
62930;BMP280;49036;42.782;23.108;2023-10-13T09:38:42;94522.53;;;23.40
62930;BMP280;49036;42.782;23.108;2023-10-13T09:41:29;94515.25;;;23.61
62930;BMP280;49036;42.782;23.108;2023-10-13T09:43:57;94520.81;;;23.57
62930;BMP280;49036;42.782;23.108;2023-10-13T09:46:26;94520.53;;;23.75
62930;BMP280;49036;42.782;23.108;2023-10-13T09:48:57;94515.03;;;23.83
62930;BMP280;49036;42.782;23.108;2023-10-13T09:51:31;94508.66;;;24.12
62930;BMP280;49036;42.782;23.108;2023-10-13T09:54:08;94505.31;;;24.92
62930;BMP280;49036;42.782;23.108;2023-10-13T09:56:42;94500.31;;;24.90
62930;BMP280;49036;42.782;23.108;2023-10-13T09:59:33;94500.31;;;25.28
62930;BMP280;49036;42.782;23.108;2023-10-13T10:02:03;94491.56;;;25.58
62930;BMP280;49036;42.782;23.108;2023-10-13T10:05:10;94496.63;;;25.20
62930;BMP280;49036;42.782;23.108;2023-10-13T10:07:55;94490.72;;;25.07
62930;BMP280;49036;42.782;23.108;2023-10-13T10:10:49;94492.91;;;25.11
62930;BMP280;49036;42.782;23.108;2023-10-13T10:13:39;94482.13;;;26.46
62930;BMP280;49036;42.782;23.108;2023-10-13T10:16:11;94482.91;;;26.50
62930;BMP280;49036;42.782;23.108;2023-10-13T10:18:41;94488.66;;;26.56
62930;BMP280;49036;42.782;23.108;2023-10-13T10:22:32;94486.00;;;27.49
62930;BMP280;49036;42.782;23.108;2023-10-13T10:25:10;94485.66;;;27.06
62930;BMP280;49036;42.782;23.108;2023-10-13T10:28:02;94477.91;;;27.17
62930;BMP280;49036;42.782;23.108;2023-10-13T10:30:33;94479.88;;;26.96
62930;BMP280;49036;42.782;23.108;2023-10-13T10:33:00;94482.34;;;26.64
62930;BMP280;49036;42.782;23.108;2023-10-13T10:35:27;94473.16;;;26.69
62930;BMP280;49036;42.782;23.108;2023-10-13T10:38:27;94471.75;;;27.49
62930;BMP280;49036;42.782;23.108;2023-10-13T10:41:05;94476.53;;;28.25
62930;BMP280;49036;42.782;23.108;2023-10-13T10:46:26;94474.16;;;26.98
62930;BMP280;49036;42.782;23.108;2023-10-13T10:48:52;94468.84;;;26.64
62930;BMP280;49036;42.782;23.108;2023-10-13T10:51:26;94471.09;;;26.74
62930;BMP280;49036;42.782;23.108;2023-10-13T10:53:57;94471.53;;;27.23
62930;BMP280;49036;42.782;23.108;2023-10-13T10:56:24;94464.38;;;28.20
62930;BMP280;49036;42.782;23.108;2023-10-13T10:59:06;94453.88;;;29.36
62930;BMP280;49036;42.782;23.108;2023-10-13T11:01:46;94449.56;;;29.65
62930;BMP280;49036;42.782;23.108;2023-10-13T11:04:18;94454.59;;;29.06
62930;BMP280;49036;42.782;23.108;2023-10-13T11:06:50;94452.47;;;29.19
62930;BMP280;49036;42.782;23.108;2023-10-13T11:09:27;94452.44;;;29.69
62930;BMP280;49036;42.782;23.108;2023-10-13T11:14:38;94440.06;;;30.24
62930;BMP280;49036;42.782;23.108;2023-10-13T11:17:04;94439.41;;;30.19
62930;BMP280;49036;42.782;23.108;2023-10-13T11:19:37;94441.28;;;31.57
62930;BMP280;49036;42.782;23.108;2023-10-13T11:22:14;94440.22;;;31.17
62930;BMP280;49036;42.782;23.108;2023-10-13T11:25:07;94438.94;;;30.98
62930;BMP280;49036;42.782;23.108;2023-10-13T11:27:37;94434.63;;;30.97
62930;BMP280;49036;42.782;23.108;2023-10-13T11:30:22;94434.41;;;31.25
62930;BMP280;49036;42.782;23.108;2023-10-13T11:33:25;94432.91;;;32.53
62930;BMP280;49036;42.782;23.108;2023-10-13T11:35:55;94432.34;;;32.91
62930;BMP280;49036;42.782;23.108;2023-10-13T11:38:30;94427.88;;;32.55
62930;BMP280;49036;42.782;23.108;2023-10-13T11:41:16;94431.56;;;33.76
62930;BMP280;49036;42.782;23.108;2023-10-13T11:43:47;94432.00;;;33.89
62930;BMP280;49036;42.782;23.108;2023-10-13T11:46:24;94420.50;;;32.17
62930;BMP280;49036;42.782;23.108;2023-10-13T11:51:57;94410.41;;;32.67
62930;BMP280;49036;42.782;23.108;2023-10-13T11:54:34;94413.63;;;33.35
62930;BMP280;49036;42.782;23.108;2023-10-13T11:57:01;94404.13;;;34.47
62930;BMP280;49036;42.782;23.108;2023-10-13T11:59:27;94393.56;;;34.66
62930;BMP280;49036;42.782;23.108;2023-10-13T12:01:56;94396.50;;;34.34
62930;BMP280;49036;42.782;23.108;2023-10-13T12:04:40;94397.03;;;35.29
62930;BMP280;49036;42.782;23.108;2023-10-13T12:07:06;94395.88;;;35.44
62930;BMP280;49036;42.782;23.108;2023-10-13T12:10:05;94398.53;;;35.79
62930;BMP280;49036;42.782;23.108;2023-10-13T12:12:40;94393.94;;;35.88
62930;BMP280;49036;42.782;23.108;2023-10-13T12:15:07;94398.88;;;36.16
62930;BMP280;49036;42.782;23.108;2023-10-13T12:17:50;94394.13;;;35.29
62930;BMP280;49036;42.782;23.108;2023-10-13T12:20:15;94387.50;;;35.07
62930;BMP280;49036;42.782;23.108;2023-10-13T12:22:50;94388.84;;;35.64
62930;BMP280;49036;42.782;23.108;2023-10-13T12:25:21;94387.19;;;36.87
62930;BMP280;49036;42.782;23.108;2023-10-13T12:27:52;94388.66;;;37.87
62930;BMP280;49036;42.782;23.108;2023-10-13T12:30:22;94387.97;;;37.87
62930;BMP280;49036;42.782;23.108;2023-10-13T12:33:01;94391.88;;;37.19
62930;BMP280;49036;42.782;23.108;2023-10-13T12:35:36;94387.28;;;37.26
62930;BMP280;49036;42.782;23.108;2023-10-13T12:38:30;94384.38;;;37.86
62930;BMP280;49036;42.782;23.108;2023-10-13T12:41:20;94389.38;;;37.88
62930;BMP280;49036;42.782;23.108;2023-10-13T12:44:21;94389.25;;;37.52
62930;BMP280;49036;42.782;23.108;2023-10-13T12:47:04;94383.50;;;36.88
62930;BMP280;49036;42.782;23.108;2023-10-13T12:49:48;94380.81;;;36.61
62930;BMP280;49036;42.782;23.108;2023-10-13T12:52:15;94375.41;;;36.49
62930;BMP280;49036;42.782;23.108;2023-10-13T12:54:59;94373.72;;;36.56
62930;BMP280;49036;42.782;23.108;2023-10-13T12:57:32;94377.13;;;35.16
62930;BMP280;49036;42.782;23.108;2023-10-13T12:59:58;94378.72;;;34.54
62930;BMP280;49036;42.782;23.108;2023-10-13T13:02:25;94366.22;;;34.02
62930;BMP280;49036;42.782;23.108;2023-10-13T13:04:51;94373.09;;;33.84
62930;BMP280;49036;42.782;23.108;2023-10-13T13:07:23;94364.06;;;33.67
62930;BMP280;49036;42.782;23.108;2023-10-13T13:09:54;94368.22;;;35.00
62930;BMP280;49036;42.782;23.108;2023-10-13T13:12:24;94370.91;;;33.82
62930;BMP280;49036;42.782;23.108;2023-10-13T13:14:50;94372.44;;;34.45
62930;BMP280;49036;42.782;23.108;2023-10-13T13:17:23;94376.09;;;34.44
62930;BMP280;49036;42.782;23.108;2023-10-13T13:19:48;94371.47;;;34.86
62930;BMP280;49036;42.782;23.108;2023-10-13T13:22:14;94364.25;;;35.65
62930;BMP280;49036;42.782;23.108;2023-10-13T13:24:39;94374.50;;;34.49
62930;BMP280;49036;42.782;23.108;2023-10-13T13:27:15;94371.31;;;34.63
62930;BMP280;49036;42.782;23.108;2023-10-13T13:29:47;94371.38;;;35.68
62930;BMP280;49036;42.782;23.108;2023-10-13T13:32:13;94363.91;;;35.25
62930;BMP280;49036;42.782;23.108;2023-10-13T13:34:49;94374.25;;;33.97
62930;BMP280;49036;42.782;23.108;2023-10-13T13:37:34;94372.25;;;34.22
62930;BMP280;49036;42.782;23.108;2023-10-13T13:39:59;94364.75;;;35.47
62930;BMP280;49036;42.782;23.108;2023-10-13T13:42:44;94364.31;;;36.99
62930;BMP280;49036;42.782;23.108;2023-10-13T13:45:17;94365.03;;;38.87
62930;BMP280;49036;42.782;23.108;2023-10-13T13:48:09;94363.97;;;39.61
62930;BMP280;49036;42.782;23.108;2023-10-13T13:50:40;94365.91;;;38.50
62930;BMP280;49036;42.782;23.108;2023-10-13T13:53:06;94369.13;;;37.48
62930;BMP280;49036;42.782;23.108;2023-10-13T13:55:34;94378.69;;;38.73
62930;BMP280;49036;42.782;23.108;2023-10-13T13:58:00;94368.59;;;38.89
62930;BMP280;49036;42.782;23.108;2023-10-13T14:00:25;94371.75;;;38.83
62930;BMP280;49036;42.782;23.108;2023-10-13T14:03:05;94367.56;;;38.26
62930;BMP280;49036;42.782;23.108;2023-10-13T14:05:31;94357.53;;;39.27
62930;BMP280;49036;42.782;23.108;2023-10-13T14:07:56;94360.41;;;40.50
62930;BMP280;49036;42.782;23.108;2023-10-13T14:10:22;94371.34;;;41.21
62930;BMP280;49036;42.782;23.108;2023-10-13T14:13:02;94367.47;;;41.79
62930;BMP280;49036;42.782;23.108;2023-10-13T14:15:40;94365.53;;;41.61
62930;BMP280;49036;42.782;23.108;2023-10-13T14:18:10;94365.41;;;40.81
62930;BMP280;49036;42.782;23.108;2023-10-13T14:20:40;94366.63;;;40.86
62930;BMP280;49036;42.782;23.108;2023-10-13T14:23:08;94362.06;;;40.89
62930;BMP280;49036;42.782;23.108;2023-10-13T14:25:40;94367.19;;;40.88
62930;BMP280;49036;42.782;23.108;2023-10-13T14:28:10;94357.69;;;40.61
62930;BMP280;49036;42.782;23.108;2023-10-13T14:30:36;94360.81;;;40.42
62930;BMP280;49036;42.782;23.108;2023-10-13T14:33:02;94366.75;;;39.94
62930;BMP280;49036;42.782;23.108;2023-10-13T14:35:27;94370.44;;;39.78
62930;BMP280;49036;42.782;23.108;2023-10-13T14:37:54;94367.88;;;39.70
62930;BMP280;49036;42.782;23.108;2023-10-13T14:40:20;94367.91;;;39.05
62930;BMP280;49036;42.782;23.108;2023-10-13T14:42:48;94362.09;;;39.05
62930;BMP280;49036;42.782;23.108;2023-10-13T14:45:14;94362.69;;;38.91
62930;BMP280;49036;42.782;23.108;2023-10-13T14:47:42;94365.28;;;38.28
62930;BMP280;49036;42.782;23.108;2023-10-13T14:50:09;94317.41;;;37.36
62930;BMP280;49036;42.782;23.108;2023-10-13T14:52:47;94262.50;;;37.13
62930;BMP280;49036;42.782;23.108;2023-10-13T14:55:14;94165.22;;;37.02
62930;BMP280;49036;42.782;23.108;2023-10-13T14:57:49;94194.38;;;36.36
62930;BMP280;49036;42.782;23.108;2023-10-13T15:00:18;94364.66;;;34.68
62930;BMP280;49036;42.782;23.108;2023-10-13T15:02:53;94356.97;;;33.95